sensor_id;sensor_type;location;lat;lon;timestamp;temperature;humidity
9808;DHT22;4943;52.550;13.462;2023-07-09T00:01:49;23.50;79.10
9808;DHT22;4943;52.550;13.462;2023-07-09T00:04:18;23.50;79.20
9808;DHT22;4943;52.550;13.462;2023-07-09T00:06:47;23.50;79.30
9808;DHT22;4943;52.550;13.462;2023-07-09T00:09:18;23.50;79.40
9808;DHT22;4943;52.550;13.462;2023-07-09T00:11:46;23.50;79.50
9808;DHT22;4943;52.550;13.462;2023-07-09T00:14:16;23.40;79.50
9808;DHT22;4943;52.550;13.462;2023-07-09T00:16:45;23.40;79.50
9808;DHT22;4943;52.550;13.462;2023-07-09T00:19:17;23.40;79.60
9808;DHT22;4943;52.550;13.462;2023-07-09T00:21:47;23.30;79.70
9808;DHT22;4943;52.550;13.462;2023-07-09T00:24:22;23.30;79.90
9808;DHT22;4943;52.550;13.462;2023-07-09T00:26:50;23.30;80.00
9808;DHT22;4943;52.550;13.462;2023-07-09T00:29:19;23.30;80.30
9808;DHT22;4943;52.550;13.462;2023-07-09T00:31:47;23.20;80.20
9808;DHT22;4943;52.550;13.462;2023-07-09T00:34:15;23.20;80.40
9808;DHT22;4943;52.550;13.462;2023-07-09T00:36:48;23.20;80.50
9808;DHT22;4943;52.550;13.462;2023-07-09T00:39:18;23.10;80.60
9808;DHT22;4943;52.550;13.462;2023-07-09T00:41:50;23.10;80.70
9808;DHT22;4943;52.550;13.462;2023-07-09T00:44:29;23.10;80.90
9808;DHT22;4943;52.550;13.462;2023-07-09T00:47:18;23.10;81.00
9808;DHT22;4943;52.550;13.462;2023-07-09T00:49:48;23.10;81.00
9808;DHT22;4943;52.550;13.462;2023-07-09T00:52:28;23.00;81.00
9808;DHT22;4943;52.550;13.462;2023-07-09T00:55:04;23.00;81.10
9808;DHT22;4943;52.550;13.462;2023-07-09T00:57:38;23.00;81.30
9808;DHT22;4943;52.550;13.462;2023-07-09T01:00:11;23.00;81.40
9808;DHT22;4943;52.550;13.462;2023-07-09T01:02:44;22.90;81.50
9808;DHT22;4943;52.550;13.462;2023-07-09T01:05:15;22.90;81.60
9808;DHT22;4943;52.550;13.462;2023-07-09T01:07:47;22.90;81.60
9808;DHT22;4943;52.550;13.462;2023-07-09T01:10:16;22.90;81.80
9808;DHT22;4943;52.550;13.462;2023-07-09T01:12:47;22.80;82.00
9808;DHT22;4943;52.550;13.462;2023-07-09T01:15:16;22.80;82.90
9808;DHT22;4943;52.550;13.462;2023-07-09T01:17:45;22.70;82.30
9808;DHT22;4943;52.550;13.462;2023-07-09T01:20:17;22.70;82.40
9808;DHT22;4943;52.550;13.462;2023-07-09T01:22:51;22.70;82.50
9808;DHT22;4943;52.550;13.462;2023-07-09T01:25:22;22.70;82.60
9808;DHT22;4943;52.550;13.462;2023-07-09T01:27:50;22.60;82.60
9808;DHT22;4943;52.550;13.462;2023-07-09T01:30:23;22.60;82.70
9808;DHT22;4943;52.550;13.462;2023-07-09T01:32:56;22.60;82.90
9808;DHT22;4943;52.550;13.462;2023-07-09T01:35:25;22.60;83.00
9808;DHT22;4943;52.550;13.462;2023-07-09T01:37:57;22.60;83.10
9808;DHT22;4943;52.550;13.462;2023-07-09T01:40:26;22.60;83.20
9808;DHT22;4943;52.550;13.462;2023-07-09T01:43:01;22.50;83.10
9808;DHT22;4943;52.550;13.462;2023-07-09T01:45:34;22.50;83.20
9808;DHT22;4943;52.550;13.462;2023-07-09T01:48:03;22.50;83.40
9808;DHT22;4943;52.550;13.462;2023-07-09T01:50:31;22.50;83.60
9808;DHT22;4943;52.550;13.462;2023-07-09T01:53:01;22.50;83.70
9808;DHT22;4943;52.550;13.462;2023-07-09T01:55:30;22.40;83.90
9808;DHT22;4943;52.550;13.462;2023-07-09T01:57:58;22.30;84.30
9808;DHT22;4943;52.550;13.462;2023-07-09T02:00:26;22.30;84.40
9808;DHT22;4943;52.550;13.462;2023-07-09T02:02:54;22.20;84.40
9808;DHT22;4943;52.550;13.462;2023-07-09T02:05:24;22.20;84.50
9808;DHT22;4943;52.550;13.462;2023-07-09T02:07:53;22.20;84.60
9808;DHT22;4943;52.550;13.462;2023-07-09T02:10:23;22.20;84.60
9808;DHT22;4943;52.550;13.462;2023-07-09T02:12:51;22.10;84.90
9808;DHT22;4943;52.550;13.462;2023-07-09T02:15:20;22.10;85.00
9808;DHT22;4943;52.550;13.462;2023-07-09T02:17:48;22.10;85.10
9808;DHT22;4943;52.550;13.462;2023-07-09T02:20:16;22.00;85.30
9808;DHT22;4943;52.550;13.462;2023-07-09T02:22:45;22.00;85.50
9808;DHT22;4943;52.550;13.462;2023-07-09T02:25:14;22.00;85.60
9808;DHT22;4943;52.550;13.462;2023-07-09T02:27:43;22.00;85.80
9808;DHT22;4943;52.550;13.462;2023-07-09T02:30:11;22.00;86.00
9808;DHT22;4943;52.550;13.462;2023-07-09T02:32:39;22.00;86.40
9808;DHT22;4943;52.550;13.462;2023-07-09T02:35:08;21.90;86.60
9808;DHT22;4943;52.550;13.462;2023-07-09T02:37:37;21.90;86.90
9808;DHT22;4943;52.550;13.462;2023-07-09T02:40:07;21.90;87.20
9808;DHT22;4943;52.550;13.462;2023-07-09T02:42:35;21.90;87.50
9808;DHT22;4943;52.550;13.462;2023-07-09T02:45:06;21.80;88.30
9808;DHT22;4943;52.550;13.462;2023-07-09T02:47:34;21.80;88.30
9808;DHT22;4943;52.550;13.462;2023-07-09T02:50:03;21.80;88.80
9808;DHT22;4943;52.550;13.462;2023-07-09T02:52:31;21.80;89.20
9808;DHT22;4943;52.550;13.462;2023-07-09T02:54:59;21.70;89.60
9808;DHT22;4943;52.550;13.462;2023-07-09T02:57:27;21.70;90.00
9808;DHT22;4943;52.550;13.462;2023-07-09T02:59:55;21.70;90.10
9808;DHT22;4943;52.550;13.462;2023-07-09T03:02:25;21.70;90.20
9808;DHT22;4943;52.550;13.462;2023-07-09T03:04:53;21.70;90.30
9808;DHT22;4943;52.550;13.462;2023-07-09T03:07:21;21.70;90.30
9808;DHT22;4943;52.550;13.462;2023-07-09T03:09:49;21.70;90.20
9808;DHT22;4943;52.550;13.462;2023-07-09T03:12:17;21.70;90.10
9808;DHT22;4943;52.550;13.462;2023-07-09T03:14:48;21.70;90.00
9808;DHT22;4943;52.550;13.462;2023-07-09T03:17:16;21.70;90.00
9808;DHT22;4943;52.550;13.462;2023-07-09T03:19:46;21.70;90.00
9808;DHT22;4943;52.550;13.462;2023-07-09T03:22:14;21.70;90.00
9808;DHT22;4943;52.550;13.462;2023-07-09T03:24:43;21.70;90.00
9808;DHT22;4943;52.550;13.462;2023-07-09T03:27:11;21.70;90.00
9808;DHT22;4943;52.550;13.462;2023-07-09T03:29:39;21.90;90.30
9808;DHT22;4943;52.550;13.462;2023-07-09T03:32:07;22.10;90.50
9808;DHT22;4943;52.550;13.462;2023-07-09T03:34:35;22.30;90.50
9808;DHT22;4943;52.550;13.462;2023-07-09T03:37:05;22.60;90.40
9808;DHT22;4943;52.550;13.462;2023-07-09T03:39:33;22.90;90.30
9808;DHT22;4943;52.550;13.462;2023-07-09T03:42:01;23.20;90.30
9808;DHT22;4943;52.550;13.462;2023-07-09T03:44:29;23.50;90.30
9808;DHT22;4943;52.550;13.462;2023-07-09T03:46:57;23.70;90.10
9808;DHT22;4943;52.550;13.462;2023-07-09T03:49:26;23.90;90.00
9808;DHT22;4943;52.550;13.462;2023-07-09T03:51:54;24.20;89.90
9808;DHT22;4943;52.550;13.462;2023-07-09T03:54:23;24.40;89.30
9808;DHT22;4943;52.550;13.462;2023-07-09T03:56:53;24.50;88.60
9808;DHT22;4943;52.550;13.462;2023-07-09T03:59:21;24.60;88.30
9808;DHT22;4943;52.550;13.462;2023-07-09T04:01:49;24.70;88.20
9808;DHT22;4943;52.550;13.462;2023-07-09T04:04:18;24.80;88.00
9808;DHT22;4943;52.550;13.462;2023-07-09T04:06:47;24.80;87.60
9808;DHT22;4943;52.550;13.462;2023-07-09T04:09:15;24.80;87.20
9808;DHT22;4943;52.550;13.462;2023-07-09T04:11:45;24.80;87.50
9808;DHT22;4943;52.550;13.462;2023-07-09T04:14:13;24.80;87.50
9808;DHT22;4943;52.550;13.462;2023-07-09T04:16:41;24.70;86.20
9808;DHT22;4943;52.550;13.462;2023-07-09T04:19:09;24.60;85.80
9808;DHT22;4943;52.550;13.462;2023-07-09T04:21:37;24.50;85.70
9808;DHT22;4943;52.550;13.462;2023-07-09T04:24:06;24.40;86.00
9808;DHT22;4943;52.550;13.462;2023-07-09T04:26:34;24.30;85.60
9808;DHT22;4943;52.550;13.462;2023-07-09T04:29:08;24.20;85.50
9808;DHT22;4943;52.550;13.462;2023-07-09T04:31:36;24.10;85.50
9808;DHT22;4943;52.550;13.462;2023-07-09T04:34:05;23.90;85.60
9808;DHT22;4943;52.550;13.462;2023-07-09T04:36:34;23.70;85.60
9808;DHT22;4943;52.550;13.462;2023-07-09T04:39:02;23.60;86.50
9808;DHT22;4943;52.550;13.462;2023-07-09T04:41:31;23.50;86.20
9808;DHT22;4943;52.550;13.462;2023-07-09T04:43:59;23.40;86.60
9808;DHT22;4943;52.550;13.462;2023-07-09T04:46:28;23.30;86.80
9808;DHT22;4943;52.550;13.462;2023-07-09T04:48:56;23.20;87.10
9808;DHT22;4943;52.550;13.462;2023-07-09T04:51:24;23.20;87.70
9808;DHT22;4943;52.550;13.462;2023-07-09T04:53:53;23.10;88.00
9808;DHT22;4943;52.550;13.462;2023-07-09T04:56:21;23.00;88.10
9808;DHT22;4943;52.550;13.462;2023-07-09T04:58:49;23.00;88.30
9808;DHT22;4943;52.550;13.462;2023-07-09T05:01:17;23.00;88.50
9808;DHT22;4943;52.550;13.462;2023-07-09T05:03:47;23.00;88.80
9808;DHT22;4943;52.550;13.462;2023-07-09T05:06:15;23.10;89.00
9808;DHT22;4943;52.550;13.462;2023-07-09T05:08:43;23.10;89.00
9808;DHT22;4943;52.550;13.462;2023-07-09T05:11:11;23.10;89.40
9808;DHT22;4943;52.550;13.462;2023-07-09T05:13:39;23.20;89.40
9808;DHT22;4943;52.550;13.462;2023-07-09T05:16:07;23.30;89.50
9808;DHT22;4943;52.550;13.462;2023-07-09T05:18:37;23.30;89.70
9808;DHT22;4943;52.550;13.462;2023-07-09T05:21:06;23.30;90.00
9808;DHT22;4943;52.550;13.462;2023-07-09T05:23:34;23.20;89.90
9808;DHT22;4943;52.550;13.462;2023-07-09T05:26:03;23.30;90.00
9808;DHT22;4943;52.550;13.462;2023-07-09T05:28:31;23.30;90.00
9808;DHT22;4943;52.550;13.462;2023-07-09T05:30:59;23.40;90.10
9808;DHT22;4943;52.550;13.462;2023-07-09T05:33:27;23.40;89.70
9808;DHT22;4943;52.550;13.462;2023-07-09T05:35:56;23.40;89.40
9808;DHT22;4943;52.550;13.462;2023-07-09T05:38:25;23.40;89.20
9808;DHT22;4943;52.550;13.462;2023-07-09T05:40:59;23.40;88.60
9808;DHT22;4943;52.550;13.462;2023-07-09T05:43:28;23.40;89.00
9808;DHT22;4943;52.550;13.462;2023-07-09T05:45:56;23.50;89.00
9808;DHT22;4943;52.550;13.462;2023-07-09T05:48:24;23.50;89.30
9808;DHT22;4943;52.550;13.462;2023-07-09T05:50:53;23.60;89.40
9808;DHT22;4943;52.550;13.462;2023-07-09T05:53:21;23.70;89.10
9808;DHT22;4943;52.550;13.462;2023-07-09T05:55:54;23.70;88.80
9808;DHT22;4943;52.550;13.462;2023-07-09T05:58:22;23.70;88.90
9808;DHT22;4943;52.550;13.462;2023-07-09T06:00:51;23.80;88.70
9808;DHT22;4943;52.550;13.462;2023-07-09T06:03:21;23.80;88.80
9808;DHT22;4943;52.550;13.462;2023-07-09T06:05:50;23.80;88.80
9808;DHT22;4943;52.550;13.462;2023-07-09T06:08:19;23.80;88.70
9808;DHT22;4943;52.550;13.462;2023-07-09T06:10:51;23.90;89.00
9808;DHT22;4943;52.550;13.462;2023-07-09T06:13:21;24.00;89.10
9808;DHT22;4943;52.550;13.462;2023-07-09T06:15:51;24.00;89.20
9808;DHT22;4943;52.550;13.462;2023-07-09T06:18:19;24.10;89.30
9808;DHT22;4943;52.550;13.462;2023-07-09T06:20:48;24.20;89.50
9808;DHT22;4943;52.550;13.462;2023-07-09T06:23:17;24.20;89.40
9808;DHT22;4943;52.550;13.462;2023-07-09T06:25:46;24.30;89.50
9808;DHT22;4943;52.550;13.462;2023-07-09T06:28:16;24.40;89.50
9808;DHT22;4943;52.550;13.462;2023-07-09T06:30:46;24.50;89.40
9808;DHT22;4943;52.550;13.462;2023-07-09T06:33:15;24.60;89.00
9808;DHT22;4943;52.550;13.462;2023-07-09T06:35:48;24.60;88.60
9808;DHT22;4943;52.550;13.462;2023-07-09T06:38:17;24.60;88.40
9808;DHT22;4943;52.550;13.462;2023-07-09T06:40:45;24.70;88.00
9808;DHT22;4943;52.550;13.462;2023-07-09T06:43:13;24.80;88.60
9808;DHT22;4943;52.550;13.462;2023-07-09T06:45:50;24.80;87.60
9808;DHT22;4943;52.550;13.462;2023-07-09T06:48:18;24.80;87.80
9808;DHT22;4943;52.550;13.462;2023-07-09T06:50:47;24.90;88.00
9808;DHT22;4943;52.550;13.462;2023-07-09T06:53:15;25.00;88.10
9808;DHT22;4943;52.550;13.462;2023-07-09T06:55:43;25.00;87.20
9808;DHT22;4943;52.550;13.462;2023-07-09T06:58:12;25.00;86.90
9808;DHT22;4943;52.550;13.462;2023-07-09T07:00:40;25.00;86.80
9808;DHT22;4943;52.550;13.462;2023-07-09T07:03:10;25.10;86.70
9808;DHT22;4943;52.550;13.462;2023-07-09T07:05:43;25.10;86.80
9808;DHT22;4943;52.550;13.462;2023-07-09T07:08:13;25.20;86.90
9808;DHT22;4943;52.550;13.462;2023-07-09T07:10:41;25.20;86.40
9808;DHT22;4943;52.550;13.462;2023-07-09T07:13:10;25.30;86.30
9808;DHT22;4943;52.550;13.462;2023-07-09T07:15:39;25.30;86.30
9808;DHT22;4943;52.550;13.462;2023-07-09T07:18:09;25.40;86.70
9808;DHT22;4943;52.550;13.462;2023-07-09T07:20:37;25.40;86.70
9808;DHT22;4943;52.550;13.462;2023-07-09T07:23:05;25.40;86.80
9808;DHT22;4943;52.550;13.462;2023-07-09T07:25:33;25.50;86.80
9808;DHT22;4943;52.550;13.462;2023-07-09T07:28:01;25.50;87.40
9808;DHT22;4943;52.550;13.462;2023-07-09T07:30:29;25.60;87.40
9808;DHT22;4943;52.550;13.462;2023-07-09T07:32:57;25.70;86.70
9808;DHT22;4943;52.550;13.462;2023-07-09T07:35:27;25.80;86.70
9808;DHT22;4943;52.550;13.462;2023-07-09T07:37:55;25.80;86.60
9808;DHT22;4943;52.550;13.462;2023-07-09T07:40:23;25.90;86.60
9808;DHT22;4943;52.550;13.462;2023-07-09T07:42:51;25.90;86.20
9808;DHT22;4943;52.550;13.462;2023-07-09T07:45:20;25.90;86.30
9808;DHT22;4943;52.550;13.462;2023-07-09T07:47:49;25.90;86.60
9808;DHT22;4943;52.550;13.462;2023-07-09T07:50:18;26.00;86.50
9808;DHT22;4943;52.550;13.462;2023-07-09T07:52:48;26.00;86.40
9808;DHT22;4943;52.550;13.462;2023-07-09T07:55:16;26.10;86.50
9808;DHT22;4943;52.550;13.462;2023-07-09T07:57:46;26.20;86.30
9808;DHT22;4943;52.550;13.462;2023-07-09T08:00:15;26.20;86.30
9808;DHT22;4943;52.550;13.462;2023-07-09T08:02:43;26.20;85.60
9808;DHT22;4943;52.550;13.462;2023-07-09T08:05:11;26.30;85.30
9808;DHT22;4943;52.550;13.462;2023-07-09T08:07:39;26.30;85.10
9808;DHT22;4943;52.550;13.462;2023-07-09T08:10:10;26.30;85.10
9808;DHT22;4943;52.550;13.462;2023-07-09T08:12:38;26.40;85.40
9808;DHT22;4943;52.550;13.462;2023-07-09T08:15:07;26.50;85.20
9808;DHT22;4943;52.550;13.462;2023-07-09T08:17:36;26.60;85.60
9808;DHT22;4943;52.550;13.462;2023-07-09T08:20:05;26.60;85.10
9808;DHT22;4943;52.550;13.462;2023-07-09T08:22:33;26.70;84.90
9808;DHT22;4943;52.550;13.462;2023-07-09T08:25:03;26.80;85.10
9808;DHT22;4943;52.550;13.462;2023-07-09T08:27:33;26.90;84.90
9808;DHT22;4943;52.550;13.462;2023-07-09T08:30:01;26.90;84.80
9808;DHT22;4943;52.550;13.462;2023-07-09T08:32:29;27.00;84.80
9808;DHT22;4943;52.550;13.462;2023-07-09T08:34:57;27.10;84.70
9808;DHT22;4943;52.550;13.462;2023-07-09T08:37:28;27.20;84.70
9808;DHT22;4943;52.550;13.462;2023-07-09T08:39:56;27.30;84.60
9808;DHT22;4943;52.550;13.462;2023-07-09T08:42:29;27.30;84.10
9808;DHT22;4943;52.550;13.462;2023-07-09T08:45:20;27.30;83.90
9808;DHT22;4943;52.550;13.462;2023-07-09T08:47:59;27.30;84.10
9808;DHT22;4943;52.550;13.462;2023-07-09T08:50:35;27.40;83.70
9808;DHT22;4943;52.550;13.462;2023-07-09T08:53:05;27.40;83.70
9808;DHT22;4943;52.550;13.462;2023-07-09T08:55:40;27.40;83.70
9808;DHT22;4943;52.550;13.462;2023-07-09T08:58:21;27.40;83.40
9808;DHT22;4943;52.550;13.462;2023-07-09T09:00:54;27.50;82.90
9808;DHT22;4943;52.550;13.462;2023-07-09T09:03:30;27.50;82.00
9808;DHT22;4943;52.550;13.462;2023-07-09T09:06:01;27.50;83.00
9808;DHT22;4943;52.550;13.462;2023-07-09T09:08:36;27.50;81.60
9808;DHT22;4943;52.550;13.462;2023-07-09T09:11:13;27.60;81.80
9808;DHT22;4943;52.550;13.462;2023-07-09T09:13:43;27.60;82.10
9808;DHT22;4943;52.550;13.462;2023-07-09T09:16:21;27.60;82.20
9808;DHT22;4943;52.550;13.462;2023-07-09T09:18:52;27.70;82.10
9808;DHT22;4943;52.550;13.462;2023-07-09T09:21:24;27.70;82.00
9808;DHT22;4943;52.550;13.462;2023-07-09T09:23:56;27.80;81.90
9808;DHT22;4943;52.550;13.462;2023-07-09T09:26:30;27.80;81.80
9808;DHT22;4943;52.550;13.462;2023-07-09T09:28:59;27.90;82.00
9808;DHT22;4943;52.550;13.462;2023-07-09T09:31:29;27.90;82.00
9808;DHT22;4943;52.550;13.462;2023-07-09T09:33:57;28.00;82.00
9808;DHT22;4943;52.550;13.462;2023-07-09T09:36:27;28.00;81.10
9808;DHT22;4943;52.550;13.462;2023-07-09T09:38:55;28.10;81.00
9808;DHT22;4943;52.550;13.462;2023-07-09T09:41:24;28.10;80.30
9808;DHT22;4943;52.550;13.462;2023-07-09T09:43:54;28.10;80.40
9808;DHT22;4943;52.550;13.462;2023-07-09T09:46:25;28.10;79.50
9808;DHT22;4943;52.550;13.462;2023-07-09T09:48:59;28.10;78.70
9808;DHT22;4943;52.550;13.462;2023-07-09T09:51:27;28.10;78.30
9808;DHT22;4943;52.550;13.462;2023-07-09T09:53:58;28.10;78.30
9808;DHT22;4943;52.550;13.462;2023-07-09T09:56:29;28.10;78.60
9808;DHT22;4943;52.550;13.462;2023-07-09T09:58:59;28.10;78.90
9808;DHT22;4943;52.550;13.462;2023-07-09T10:01:29;28.10;77.40
9808;DHT22;4943;52.550;13.462;2023-07-09T10:04:00;28.10;77.40
9808;DHT22;4943;52.550;13.462;2023-07-09T10:06:35;28.20;77.00
9808;DHT22;4943;52.550;13.462;2023-07-09T10:09:12;28.20;76.80
9808;DHT22;4943;52.550;13.462;2023-07-09T10:11:45;28.20;76.90
9808;DHT22;4943;52.550;13.462;2023-07-09T10:14:30;28.30;77.40
9808;DHT22;4943;52.550;13.462;2023-07-09T10:17:04;28.40;77.30
9808;DHT22;4943;52.550;13.462;2023-07-09T10:19:44;28.40;77.10
9808;DHT22;4943;52.550;13.462;2023-07-09T10:22:22;28.50;77.40
9808;DHT22;4943;52.550;13.462;2023-07-09T10:24:58;28.60;77.90
9808;DHT22;4943;52.550;13.462;2023-07-09T10:27:35;28.70;79.20
9808;DHT22;4943;52.550;13.462;2023-07-09T10:30:21;28.80;78.60
9808;DHT22;4943;52.550;13.462;2023-07-09T10:33:01;28.80;78.30
9808;DHT22;4943;52.550;13.462;2023-07-09T10:35:37;28.80;77.30
9808;DHT22;4943;52.550;13.462;2023-07-09T10:38:20;28.80;77.30
9808;DHT22;4943;52.550;13.462;2023-07-09T10:40:55;28.90;78.10
9808;DHT22;4943;52.550;13.462;2023-07-09T10:43:38;28.90;77.60
9808;DHT22;4943;52.550;13.462;2023-07-09T10:46:11;28.90;77.90
9808;DHT22;4943;52.550;13.462;2023-07-09T10:48:42;28.90;77.70
9808;DHT22;4943;52.550;13.462;2023-07-09T10:51:21;28.90;77.60
9808;DHT22;4943;52.550;13.462;2023-07-09T10:53:55;28.90;77.90
9808;DHT22;4943;52.550;13.462;2023-07-09T10:56:26;29.00;77.10
9808;DHT22;4943;52.550;13.462;2023-07-09T10:59:00;29.00;77.60
9808;DHT22;4943;52.550;13.462;2023-07-09T11:01:36;29.10;77.40
9808;DHT22;4943;52.550;13.462;2023-07-09T11:04:21;29.10;76.70
9808;DHT22;4943;52.550;13.462;2023-07-09T11:06:56;29.10;76.60
9808;DHT22;4943;52.550;13.462;2023-07-09T11:09:31;29.20;76.90
9808;DHT22;4943;52.550;13.462;2023-07-09T11:12:05;29.20;77.70
9808;DHT22;4943;52.550;13.462;2023-07-09T11:14:39;29.30;77.10
9808;DHT22;4943;52.550;13.462;2023-07-09T11:17:14;29.30;77.10
9808;DHT22;4943;52.550;13.462;2023-07-09T11:19:43;29.40;76.90
9808;DHT22;4943;52.550;13.462;2023-07-09T11:22:17;29.40;76.90
9808;DHT22;4943;52.550;13.462;2023-07-09T11:24:49;29.50;76.60
9808;DHT22;4943;52.550;13.462;2023-07-09T11:27:21;29.50;76.60
9808;DHT22;4943;52.550;13.462;2023-07-09T11:29:56;29.50;77.10
9808;DHT22;4943;52.550;13.462;2023-07-09T11:32:27;29.60;76.50
9808;DHT22;4943;52.550;13.462;2023-07-09T11:35:06;29.50;76.20
9808;DHT22;4943;52.550;13.462;2023-07-09T11:37:44;29.60;76.60
9808;DHT22;4943;52.550;13.462;2023-07-09T11:40:14;29.60;76.60
9808;DHT22;4943;52.550;13.462;2023-07-09T11:42:49;29.70;76.80
9808;DHT22;4943;52.550;13.462;2023-07-09T11:45:22;29.80;76.70
9808;DHT22;4943;52.550;13.462;2023-07-09T11:47:57;29.90;77.10
9808;DHT22;4943;52.550;13.462;2023-07-09T11:50:34;30.00;77.20
9808;DHT22;4943;52.550;13.462;2023-07-09T11:53:19;30.10;77.40
9808;DHT22;4943;52.550;13.462;2023-07-09T11:55:50;30.10;77.10
9808;DHT22;4943;52.550;13.462;2023-07-09T11:58:18;30.20;77.80
9808;DHT22;4943;52.550;13.462;2023-07-09T12:00:49;30.20;76.60
9808;DHT22;4943;52.550;13.462;2023-07-09T12:03:21;30.30;76.60
9808;DHT22;4943;52.550;13.462;2023-07-09T12:05:52;30.30;74.90
9808;DHT22;4943;52.550;13.462;2023-07-09T12:08:26;30.30;75.60
9808;DHT22;4943;52.550;13.462;2023-07-09T12:10:55;30.40;75.50
9808;DHT22;4943;52.550;13.462;2023-07-09T12:13:23;30.40;75.00
9808;DHT22;4943;52.550;13.462;2023-07-09T12:15:51;30.40;74.70
9808;DHT22;4943;52.550;13.462;2023-07-09T12:18:19;30.50;75.30
9808;DHT22;4943;52.550;13.462;2023-07-09T12:20:49;30.50;74.80
9808;DHT22;4943;52.550;13.462;2023-07-09T12:23:23;30.50;73.80
9808;DHT22;4943;52.550;13.462;2023-07-09T12:25:53;30.60;74.40
9808;DHT22;4943;52.550;13.462;2023-07-09T12:28:22;30.60;74.20
9808;DHT22;4943;52.550;13.462;2023-07-09T12:30:52;30.70;73.20
9808;DHT22;4943;52.550;13.462;2023-07-09T12:33:21;30.70;73.40
9808;DHT22;4943;52.550;13.462;2023-07-09T12:35:56;30.70;73.10
9808;DHT22;4943;52.550;13.462;2023-07-09T12:38:29;30.70;73.20
9808;DHT22;4943;52.550;13.462;2023-07-09T12:41:00;30.70;71.90
9808;DHT22;4943;52.550;13.462;2023-07-09T12:43:31;30.70;71.00
9808;DHT22;4943;52.550;13.462;2023-07-09T12:45:59;30.80;72.00
9808;DHT22;4943;52.550;13.462;2023-07-09T12:48:29;30.80;72.50
9808;DHT22;4943;52.550;13.462;2023-07-09T12:50:58;30.90;71.80
9808;DHT22;4943;52.550;13.462;2023-07-09T12:53:29;30.90;71.60
9808;DHT22;4943;52.550;13.462;2023-07-09T12:56:00;30.90;71.40
9808;DHT22;4943;52.550;13.462;2023-07-09T12:58:30;30.90;70.70
9808;DHT22;4943;52.550;13.462;2023-07-09T13:01:05;31.00;71.20
9808;DHT22;4943;52.550;13.462;2023-07-09T13:03:34;31.00;69.90
9808;DHT22;4943;52.550;13.462;2023-07-09T13:06:04;31.00;70.00
9808;DHT22;4943;52.550;13.462;2023-07-09T13:08:43;31.00;70.10
9808;DHT22;4943;52.550;13.462;2023-07-09T13:11:15;31.10;69.40
9808;DHT22;4943;52.550;13.462;2023-07-09T13:13:54;31.10;69.10
9808;DHT22;4943;52.550;13.462;2023-07-09T13:16:22;31.10;69.30
9808;DHT22;4943;52.550;13.462;2023-07-09T13:18:51;31.20;69.90
9808;DHT22;4943;52.550;13.462;2023-07-09T13:21:20;31.30;70.40
9808;DHT22;4943;52.550;13.462;2023-07-09T13:23:52;31.40;70.30
9808;DHT22;4943;52.550;13.462;2023-07-09T13:26:23;31.50;68.70
9808;DHT22;4943;52.550;13.462;2023-07-09T13:29:12;31.40;68.00
9808;DHT22;4943;52.550;13.462;2023-07-09T13:31:40;31.50;69.00
9808;DHT22;4943;52.550;13.462;2023-07-09T13:34:17;31.50;69.10
9808;DHT22;4943;52.550;13.462;2023-07-09T13:36:46;31.50;69.10
9808;DHT22;4943;52.550;13.462;2023-07-09T13:39:16;31.60;69.50
9808;DHT22;4943;52.550;13.462;2023-07-09T13:41:45;31.70;69.40
9808;DHT22;4943;52.550;13.462;2023-07-09T13:44:15;31.80;69.70
9808;DHT22;4943;52.550;13.462;2023-07-09T13:46:43;31.90;69.90
9808;DHT22;4943;52.550;13.462;2023-07-09T13:49:14;32.00;69.50
9808;DHT22;4943;52.550;13.462;2023-07-09T13:51:46;32.10;68.40
9808;DHT22;4943;52.550;13.462;2023-07-09T13:54:18;32.10;68.70
9808;DHT22;4943;52.550;13.462;2023-07-09T13:56:47;32.10;68.70
9808;DHT22;4943;52.550;13.462;2023-07-09T13:59:19;32.10;68.70
9808;DHT22;4943;52.550;13.462;2023-07-09T14:01:48;32.10;68.10
9808;DHT22;4943;52.550;13.462;2023-07-09T14:04:18;32.10;68.30
9808;DHT22;4943;52.550;13.462;2023-07-09T14:06:46;32.10;68.60
9808;DHT22;4943;52.550;13.462;2023-07-09T14:09:16;32.10;67.70
9808;DHT22;4943;52.550;13.462;2023-07-09T14:11:46;32.10;67.50
9808;DHT22;4943;52.550;13.462;2023-07-09T14:14:20;32.10;67.10
9808;DHT22;4943;52.550;13.462;2023-07-09T14:16:50;32.10;67.90
9808;DHT22;4943;52.550;13.462;2023-07-09T14:19:21;32.20;67.80
9808;DHT22;4943;52.550;13.462;2023-07-09T14:21:50;32.20;67.20
9808;DHT22;4943;52.550;13.462;2023-07-09T14:24:22;32.40;67.60
9808;DHT22;4943;52.550;13.462;2023-07-09T14:26:52;32.40;66.60
9808;DHT22;4943;52.550;13.462;2023-07-09T14:29:21;32.50;67.10
9808;DHT22;4943;52.550;13.462;2023-07-09T14:31:49;32.60;67.00
9808;DHT22;4943;52.550;13.462;2023-07-09T14:34:20;32.60;66.70
9808;DHT22;4943;52.550;13.462;2023-07-09T14:36:49;32.70;67.10
9808;DHT22;4943;52.550;13.462;2023-07-09T14:39:17;32.70;67.10
9808;DHT22;4943;52.550;13.462;2023-07-09T14:41:47;32.70;66.30
9808;DHT22;4943;52.550;13.462;2023-07-09T14:44:24;32.70;65.70
9808;DHT22;4943;52.550;13.462;2023-07-09T14:46:54;32.70;66.10
9808;DHT22;4943;52.550;13.462;2023-07-09T14:49:23;32.80;65.50
9808;DHT22;4943;52.550;13.462;2023-07-09T14:51:52;32.80;64.90
9808;DHT22;4943;52.550;13.462;2023-07-09T14:54:22;32.80;64.70
9808;DHT22;4943;52.550;13.462;2023-07-09T14:56:52;32.80;65.30
9808;DHT22;4943;52.550;13.462;2023-07-09T14:59:21;32.90;66.00
9808;DHT22;4943;52.550;13.462;2023-07-09T15:01:50;33.20;66.20
9808;DHT22;4943;52.550;13.462;2023-07-09T15:04:30;33.40;65.00
9808;DHT22;4943;52.550;13.462;2023-07-09T15:06:59;33.50;63.90
9808;DHT22;4943;52.550;13.462;2023-07-09T15:09:28;33.50;64.40
9808;DHT22;4943;52.550;13.462;2023-07-09T15:11:59;33.50;63.80
9808;DHT22;4943;52.550;13.462;2023-07-09T15:14:28;33.70;64.60
9808;DHT22;4943;52.550;13.462;2023-07-09T15:16:56;33.80;65.00
9808;DHT22;4943;52.550;13.462;2023-07-09T15:19:27;34.00;65.00
9808;DHT22;4943;52.550;13.462;2023-07-09T15:21:55;34.30;65.50
9808;DHT22;4943;52.550;13.462;2023-07-09T15:24:27;34.40;66.10
9808;DHT22;4943;52.550;13.462;2023-07-09T15:26:59;34.60;66.10
9808;DHT22;4943;52.550;13.462;2023-07-09T15:29:28;34.60;65.30
9808;DHT22;4943;52.550;13.462;2023-07-09T15:31:58;34.60;64.60
9808;DHT22;4943;52.550;13.462;2023-07-09T15:34:26;34.60;64.80
9808;DHT22;4943;52.550;13.462;2023-07-09T15:36:54;34.60;63.70
9808;DHT22;4943;52.550;13.462;2023-07-09T15:39:22;34.70;64.40
9808;DHT22;4943;52.550;13.462;2023-07-09T15:41:52;34.80;63.90
9808;DHT22;4943;52.550;13.462;2023-07-09T15:44:21;34.90;63.70
9808;DHT22;4943;52.550;13.462;2023-07-09T15:46:52;34.90;63.90
9808;DHT22;4943;52.550;13.462;2023-07-09T15:49:21;35.00;63.40
9808;DHT22;4943;52.550;13.462;2023-07-09T15:51:49;35.10;64.10
9808;DHT22;4943;52.550;13.462;2023-07-09T15:54:18;35.20;64.40
9808;DHT22;4943;52.550;13.462;2023-07-09T15:56:48;35.30;62.60
9808;DHT22;4943;52.550;13.462;2023-07-09T15:59:29;35.30;62.90
9808;DHT22;4943;52.550;13.462;2023-07-09T16:01:59;35.50;63.00
9808;DHT22;4943;52.550;13.462;2023-07-09T16:04:28;35.50;62.30
9808;DHT22;4943;52.550;13.462;2023-07-09T16:06:56;35.60;62.20